Time;durP1;ratioP1;P1;durP2;ratioP2;P2;SDS_P1;SDS_P2;PMS_P1;PMS_P2;Temp;Humidity;BMP_temperature;BMP_pressure;BME280_temperature;BME280_humidity;BME280_pressure;Samples;Min_cycle;Max_cycle;Signal;HPM_P1;HPM_P2
2021/05/28 00:00:37;;;;;;;2.60;1.25;;;;;;;;;;5068672;28;20440;-80
2021/05/28 00:03:04;;;;;;;1.10;1.10;;;;;;;;;;5067622;28;20054;-80
2021/05/28 00:05:31;;;;;;;1.00;1.00;;;;;;;;;;5079967;28;20036;-80
2021/05/28 00:07:57;;;;;;;1.73;1.20;;;;;;;;;;5065394;28;20039;-79
2021/05/28 00:10:24;;;;;;;2.90;1.20;;;;;;;;;;5066687;28;20094;-79
2021/05/28 00:12:51;;;;;;;4.80;1.88;;;;;;;;;;5066668;28;20045;-79
2021/05/28 00:15:18;;;;;;;1.38;1.20;;;;;;;;;;5068185;28;20045;-79
2021/05/28 00:17:44;;;;;;;3.55;1.27;;;;;;;;;;5065681;28;20486;-79
2021/05/28 00:20:12;;;;;;;1.67;1.58;;;;;;;;;;5071321;28;20044;-80
2021/05/28 00:22:40;;;;;;;2.25;1.30;;;;;;;;;;5066016;28;20037;-80
2021/05/28 00:25:08;;;;;;;2.35;1.10;;;;;;;;;;5065782;28;20576;-80
2021/05/28 00:27:36;;;;;;;1.33;1.20;;;;;;;;;;5065908;28;20040;-80
2021/05/28 00:30:03;;;;;;;2.08;1.25;;;;;;;;;;5068089;28;20518;-80
2021/05/28 00:32:31;;;;;;;1.20;1.10;;;;;;;;;;5068621;28;20069;-80
2021/05/28 00:34:57;;;;;;;2.13;1.83;;;;;;;;;;5072146;28;20478;-80
2021/05/28 00:37:24;;;;;;;3.53;1.60;;;;;;;;;;5069192;28;20421;-79
2021/05/28 00:39:51;;;;;;;2.20;1.42;;;;;;;;;;5060668;28;20040;-79
2021/05/28 00:42:18;;;;;;;1.60;1.48;;;;;;;;;;5071561;28;20032;-80
2021/05/28 00:44:44;;;;;;;2.13;1.20;;;;;;;;;;5068720;28;20098;-80
2021/05/28 00:47:11;;;;;;;2.83;1.20;;;;;;;;;;5071801;28;20493;-80
2021/05/28 00:49:38;;;;;;;1.70;1.38;;;;;;;;;;5071902;28;20094;-80
2021/05/28 00:52:05;;;;;;;1.75;1.45;;;;;;;;;;5055744;28;20459;-80
2021/05/28 00:54:32;;;;;;;2.00;1.40;;;;;;;;;;5070537;28;20059;-80
2021/05/28 00:56:59;;;;;;;5.18;1.73;;;;;;;;;;5070508;28;20060;-79
2021/05/28 00:59:26;;;;;;;1.48;1.20;;;;;;;;;;5069727;28;20392;-79
2021/05/28 01:01:54;;;;;;;1.35;1.25;;;;;;;;;;5069942;28;20051;-79
2021/05/28 01:04:21;;;;;;;1.83;1.30;;;;;;;;;;5053240;28;20120;-79
2021/05/28 01:06:48;;;;;;;3.05;1.30;;;;;;;;;;5070484;28;20390;-79
2021/05/28 01:09:15;;;;;;;1.50;1.30;;;;;;;;;;5067589;28;20032;-79
2021/05/28 01:11:42;;;;;;;1.50;1.40;;;;;;;;;;5064803;28;20044;-79
2021/05/28 01:14:08;;;;;;;1.67;1.50;;;;;;;;;;5063422;28;20044;-79
2021/05/28 01:16:35;;;;;;;2.13;1.38;;;;;;;;;;5053369;28;20128;-79
2021/05/28 01:19:02;;;;;;;2.42;1.48;;;;;;;;;;5063560;28;20041;-79
2021/05/28 01:21:29;;;;;;;2.17;1.35;;;;;;;;;;5070146;28;20093;-80
2021/05/28 01:23:56;;;;;;;2.08;1.55;;;;;;;;;;5050116;28;20037;-80
2021/05/28 01:26:23;;;;;;;1.77;1.30;;;;;;;;;;5069230;28;20064;-80
2021/05/28 01:28:49;;;;;;;2.35;1.30;;;;;;;;;;5059202;28;20098;-80
2021/05/28 01:31:16;;;;;;;1.40;1.30;;;;;;;;;;5045863;28;20045;-80
2021/05/28 01:33:44;;;;;;;1.73;1.67;;;;;;;;;;5059323;28;20084;-80
2021/05/28 01:36:11;;;;;;;1.40;1.30;;;;;;;;;;5056893;28;20044;-80
2021/05/28 01:38:38;;;;;;;1.77;1.27;;;;;;;;;;5082002;28;20413;-80
2021/05/28 01:41:05;;;;;;;1.35;1.25;;;;;;;;;;5069357;28;20478;-80
2021/05/28 01:43:32;;;;;;;1.58;1.25;;;;;;;;;;5066137;28;20045;-79
2021/05/28 01:45:59;;;;;;;1.50;1.42;;;;;;;;;;5097051;28;20032;-79
2021/05/28 01:48:26;;;;;;;1.58;1.48;;;;;;;;;;5055358;28;20375;-79
2021/05/28 01:50:53;;;;;;;6.40;1.40;;;;;;;;;;5066298;28;20041;-79
2021/05/28 01:53:21;;;;;;;3.72;1.70;;;;;;;;;;5050670;28;20478;-79
2021/05/28 01:55:48;;;;;;;1.70;1.60;;;;;;;;;;5069759;28;20037;-80
2021/05/28 01:58:18;;;;;;;3.08;1.85;;;;;;;;;;5063187;28;20040;-80
2021/05/28 02:00:47;;;;;;;1.40;1.30;;;;;;;;;;5100033;28;20113;-80
2021/05/28 02:03:14;;;;;;;1.67;1.58;;;;;;;;;;5067874;28;20048;-80
2021/05/28 02:05:43;;;;;;;1.60;1.50;;;;;;;;;;5064794;28;20075;-80
2021/05/28 02:08:10;;;;;;;3.00;1.60;;;;;;;;;;5068443;28;20044;-80
2021/05/28 02:10:37;;;;;;;1.98;1.80;;;;;;;;;;5068676;28;20044;-79
2021/05/28 02:13:03;;;;;;;5.78;1.77;;;;;;;;;;5058086;28;20490;-79
2021/05/28 02:15:30;;;;;;;2.13;1.52;;;;;;;;;;5062897;28;20059;-79
2021/05/28 02:17:57;;;;;;;1.45;1.35;;;;;;;;;;5072982;28;20037;-79
2021/05/28 02:20:24;;;;;;;1.88;1.77;;;;;;;;;;5084000;28;20040;-80
2021/05/28 02:22:51;;;;;;;1.58;1.42;;;;;;;;;;5068919;28;20539;-80
2021/05/28 02:25:18;;;;;;;1.38;1.38;;;;;;;;;;5069795;28;20032;-80
2021/05/28 02:27:45;;;;;;;1.83;1.67;;;;;;;;;;5069120;28;20549;-80
2021/05/28 02:30:12;;;;;;;1.30;1.20;;;;;;;;;;5060737;28;20041;-80
2021/05/28 02:32:39;;;;;;;1.95;1.70;;;;;;;;;;5057152;28;20083;-79
2021/05/28 02:35:08;;;;;;;1.58;1.50;;;;;;;;;;5066383;28;20044;-79
2021/05/28 02:37:35;;;;;;;1.65;1.55;;;;;;;;;;5068004;28;20506;-79
2021/05/28 02:40:03;;;;;;;2.35;2.15;;;;;;;;;;5068901;28;20033;-80
2021/05/28 02:42:30;;;;;;;1.30;1.30;;;;;;;;;;5046033;28;20053;-80
2021/05/28 02:44:57;;;;;;;1.60;1.50;;;;;;;;;;5068859;28;20066;-80
2021/05/28 02:47:24;;;;;;;1.30;1.25;;;;;;;;;;5069142;28;20049;-80
2021/05/28 02:49:51;;;;;;;1.98;1.80;;;;;;;;;;5068800;28;20043;-80
2021/05/28 02:52:17;;;;;;;2.67;1.35;;;;;;;;;;5084159;28;20474;-80
2021/05/28 02:54:44;;;;;;;1.85;1.77;;;;;;;;;;5069376;28;20094;-80
2021/05/28 02:57:11;;;;;;;1.65;1.55;;;;;;;;;;5057315;28;20044;-80
2021/05/28 02:59:38;;;;;;;1.98;1.83;;;;;;;;;;5065782;28;20043;-79
2021/05/28 03:02:05;;;;;;;1.55;1.55;;;;;;;;;;5050347;28;20506;-80
2021/05/28 03:04:32;;;;;;;3.53;2.47;;;;;;;;;;5100861;28;20055;-80
2021/05/28 03:07:03;;;;;;;1.70;1.60;;;;;;;;;;5083571;28;20041;-80
2021/05/28 03:09:38;;;;;;;3.20;1.88;;;;;;;;;;5050275;28;20082;-80
2021/05/28 03:12:05;;;;;;;2.08;1.48;;;;;;;;;;5069911;28;20040;-80
2021/05/28 03:14:32;;;;;;;1.77;1.63;;;;;;;;;;5050621;28;20114;-80
2021/05/28 03:16:58;;;;;;;2.67;2.03;;;;;;;;;;5068209;28;20064;-80
2021/05/28 03:19:33;;;;;;;4.72;2.20;;;;;;;;;;5064098;28;20040;-80
2021/05/28 03:24:45;;;;;;;2.10;2.00;;;;;;;;;;5068547;28;20044;-80
2021/05/28 03:27:12;;;;;;;1.80;1.70;;;;;;;;;;5066595;28;20040;-80
2021/05/28 03:29:39;;;;;;;2.05;1.95;;;;;;;;;;5091896;28;20140;-80
2021/05/28 03:32:06;;;;;;;2.35;1.92;;;;;;;;;;5067205;28;20044;-80
2021/05/28 03:34:32;;;;;;;3.85;1.88;;;;;;;;;;5069604;28;20041;-80
2021/05/28 03:36:59;;;;;;;2.03;1.90;;;;;;;;;;5055034;28;20385;-80
2021/05/28 03:39:26;;;;;;;2.28;2.28;;;;;;;;;;5076260;28;20040;-80
2021/05/28 03:41:53;;;;;;;1.50;1.50;;;;;;;;;;5063103;28;20094;-80
2021/05/28 03:44:20;;;;;;;1.98;1.88;;;;;;;;;;5061074;28;20394;-80
2021/05/28 03:46:46;;;;;;;3.53;1.70;;;;;;;;;;5056843;28;20705;-80
2021/05/28 03:49:13;;;;;;;1.23;1.23;;;;;;;;;;5068033;28;20079;-79
2021/05/28 03:51:40;;;;;;;1.90;1.83;;;;;;;;;;5067985;28;20041;-79
2021/05/28 03:54:06;;;;;;;6.53;2.55;;;;;;;;;;5072478;28;20554;-79
2021/05/28 03:56:34;;;;;;;1.73;1.70;;;;;;;;;;5072256;28;20044;-80
2021/05/28 03:59:00;;;;;;;2.40;2.30;;;;;;;;;;5073327;28;20449;-80
2021/05/28 04:01:27;;;;;;;2.53;1.88;;;;;;;;;;5064735;28;20044;-80
2021/05/28 04:03:54;;;;;;;2.00;1.90;;;;;;;;;;5071056;28;20043;-80
2021/05/28 04:06:21;;;;;;;4.53;2.00;;;;;;;;;;5070994;28;20033;-80
2021/05/28 04:08:48;;;;;;;2.10;2.00;;;;;;;;;;5071186;28;20373;-80
2021/05/28 04:11:15;;;;;;;2.67;2.55;;;;;;;;;;5071057;28;20048;-79
2021/05/28 04:13:42;;;;;;;2.47;2.40;;;;;;;;;;5065804;28;20040;-80
2021/05/28 04:16:08;;;;;;;2.55;2.13;;;;;;;;;;5071189;28;20060;-80
2021/05/28 04:18:35;;;;;;;3.58;2.60;;;;;;;;;;5069952;28;20397;-80
2021/05/28 04:21:02;;;;;;;1.80;1.70;;;;;;;;;;5061549;28;20065;-80
2021/05/28 04:23:29;;;;;;;2.35;2.22;;;;;;;;;;5064485;28;20085;-80
2021/05/28 04:25:56;;;;;;;3.13;2.35;;;;;;;;;;5038257;28;20053;-80
2021/05/28 04:28:23;;;;;;;2.47;2.28;;;;;;;;;;5066299;28;20043;-80
2021/05/28 04:30:49;;;;;;;2.22;2.13;;;;;;;;;;5080949;28;20033;-80
2021/05/28 04:33:16;;;;;;;1.83;1.83;;;;;;;;;;5085400;28;20066;-80
2021/05/28 04:35:43;;;;;;;1.98;1.98;;;;;;;;;;5070070;28;20072;-80
2021/05/28 04:38:09;;;;;;;1.73;1.63;;;;;;;;;;5070999;28;20144;-80
2021/05/28 04:40:36;;;;;;;1.70;1.70;;;;;;;;;;5068101;28;20041;-80
2021/05/28 04:43:03;;;;;;;1.70;1.60;;;;;;;;;;5067129;28;20044;-80
2021/05/28 04:45:30;;;;;;;2.33;1.83;;;;;;;;;;5104017;28;20029;-80
2021/05/28 04:47:56;;;;;;;2.00;1.90;;;;;;;;;;5053793;28;23379;-80
2021/05/28 04:50:32;;;;;;;5.32;2.10;;;;;;;;;;5067956;28;20098;-80
2021/05/28 04:53:00;;;;;;;4.43;2.72;;;;;;;;;;5065319;28;20033;-80
2021/05/28 04:55:28;;;;;;;6.25;2.15;;;;;;;;;;5067454;28;20048;-80
2021/05/28 04:57:54;;;;;;;4.30;2.25;;;;;;;;;;5056671;28;20052;-80
2021/05/28 05:00:22;;;;;;;3.50;1.50;;;;;;;;;;5098539;28;20093;-80
2021/05/28 05:02:48;;;;;;;2.33;2.17;;;;;;;;;;5059616;28;20708;-80
2021/05/28 05:05:16;;;;;;;3.38;1.80;;;;;;;;;;5070164;28;20486;-80
2021/05/28 05:07:45;;;;;;;5.28;1.70;;;;;;;;;;5069576;28;20075;-80
2021/05/28 05:10:12;;;;;;;1.60;1.60;;;;;;;;;;5070326;28;20037;-80
2021/05/28 05:12:39;;;;;;;2.28;2.08;;;;;;;;;;5070747;28;20045;-80
2021/05/28 05:15:07;;;;;;;2.22;1.77;;;;;;;;;;5069636;28;20091;-80
2021/05/28 05:17:34;;;;;;;4.82;1.75;;;;;;;;;;5064574;28;20041;-80
2021/05/28 05:20:01;;;;;;;1.40;1.40;;;;;;;;;;5079056;28;20103;-80
2021/05/28 05:22:27;;;;;;;2.47;1.33;;;;;;;;;;5068526;28;20051;-81
2021/05/28 05:24:54;;;;;;;1.40;1.40;;;;;;;;;;5064963;28;20037;-81
2021/05/28 05:27:21;;;;;;;1.65;1.55;;;;;;;;;;5058329;28;20390;-81
2021/05/28 05:29:48;;;;;;;1.60;1.50;;;;;;;;;;5060516;28;20041;-81
2021/05/28 05:32:15;;;;;;;1.42;1.33;;;;;;;;;;5069355;28;20068;-81
2021/05/28 05:34:41;;;;;;;1.92;1.63;;;;;;;;;;5055395;28;20132;-81
2021/05/28 05:37:08;;;;;;;3.25;1.63;;;;;;;;;;5071133;28;20056;-81
2021/05/28 05:39:35;;;;;;;3.40;1.50;;;;;;;;;;5069736;28;20114;-81
2021/05/28 05:42:03;;;;;;;1.83;1.73;;;;;;;;;;5069841;28;20482;-81
2021/05/28 05:44:29;;;;;;;4.70;1.80;;;;;;;;;;5069126;28;20094;-81
2021/05/28 05:46:56;;;;;;;1.58;1.40;;;;;;;;;;5062070;28;20032;-81
2021/05/28 05:49:23;;;;;;;1.30;1.20;;;;;;;;;;5066078;28;20052;-81
2021/05/28 05:51:50;;;;;;;1.80;1.60;;;;;;;;;;5059014;28;20098;-81
2021/05/28 05:54:16;;;;;;;4.40;1.90;;;;;;;;;;5070392;28;20044;-81
2021/05/28 05:56:43;;;;;;;1.95;1.48;;;;;;;;;;5067364;28;20067;-81
2021/05/28 05:59:11;;;;;;;5.18;1.52;;;;;;;;;;5074681;28;20051;-81
2021/05/28 06:01:38;;;;;;;1.30;1.20;;;;;;;;;;5068812;28;20049;-81
2021/05/28 06:04:04;;;;;;;4.05;1.30;;;;;;;;;;5070470;28;20032;-81
2021/05/28 06:06:31;;;;;;;2.42;1.20;;;;;;;;;;5068437;28;20068;-82
2021/05/28 06:08:58;;;;;;;4.00;1.90;;;;;;;;;;5065807;28;20055;-81
2021/05/28 06:11:25;;;;;;;4.50;1.15;;;;;;;;;;5054280;28;20037;-81
2021/05/28 06:13:52;;;;;;;1.38;1.17;;;;;;;;;;5069250;28;20037;-81
2021/05/28 06:16:18;;;;;;;2.30;1.35;;;;;;;;;;5068436;28;20040;-81
2021/05/28 06:18:45;;;;;;;1.00;1.00;;;;;;;;;;5069412;28;20421;-81
2021/05/28 06:21:12;;;;;;;2.65;1.10;;;;;;;;;;5068775;28;20059;-81
2021/05/28 06:23:39;;;;;;;1.10;1.10;;;;;;;;;;5051372;28;20135;-81
2021/05/28 06:26:05;;;;;;;2.10;1.40;;;;;;;;;;5070185;28;20040;-81
2021/05/28 06:28:32;;;;;;;2.50;1.10;;;;;;;;;;5069804;28;20575;-81
2021/05/28 06:30:59;;;;;;;1.10;1.00;;;;;;;;;;5070367;28;20036;-81
2021/05/28 06:33:26;;;;;;;1.40;0.93;;;;;;;;;;5064365;28;20052;-81
2021/05/28 06:35:53;;;;;;;1.48;1.10;;;;;;;;;;5056589;28;20055;-81
2021/05/28 06:38:20;;;;;;;3.30;1.10;;;;;;;;;;5072504;28;20535;-81
2021/05/28 06:40:47;;;;;;;1.35;1.10;;;;;;;;;;5066990;28;20132;-81
2021/05/28 06:43:14;;;;;;;1.00;1.00;;;;;;;;;;5068344;28;20689;-82
2021/05/28 06:45:41;;;;;;;6.95;1.40;;;;;;;;;;5069551;28;20036;-82
2021/05/28 06:48:10;;;;;;;0.80;0.80;;;;;;;;;;5069768;28;20036;-81
2021/05/28 06:50:40;;;;;;;2.10;1.38;;;;;;;;;;5060116;28;20036;-81
2021/05/28 06:53:08;;;;;;;1.08;1.08;;;;;;;;;;5062988;28;20059;-82
2021/05/28 06:55:35;;;;;;;1.55;0.93;;;;;;;;;;5070318;28;20131;-82
2021/05/28 06:58:02;;;;;;;2.67;1.00;;;;;;;;;;5062703;28;20036;-82
2021/05/28 07:00:29;;;;;;;2.03;0.98;;;;;;;;;;5059439;28;20048;-82
2021/05/28 07:02:56;;;;;;;2.20;0.82;;;;;;;;;;5068589;28;20037;-82
2021/05/28 07:05:24;;;;;;;2.40;0.90;;;;;;;;;;5068109;28;20037;-82
2021/05/28 07:07:51;;;;;;;0.80;0.80;;;;;;;;;;5068555;28;20401;-83
2021/05/28 07:10:18;;;;;;;2.15;0.90;;;;;;;;;;5069448;28;20431;-82
2021/05/28 07:12:45;;;;;;;1.13;0.90;;;;;;;;;;5068070;28;20044;-82
2021/05/28 07:15:12;;;;;;;2.03;0.88;;;;;;;;;;5049959;28;20098;-82
2021/05/28 07:17:38;;;;;;;2.45;1.00;;;;;;;;;;5068640;28;20603;-82
2021/05/28 07:20:06;;;;;;;9.35;1.65;;;;;;;;;;5062360;28;20056;-82
2021/05/28 07:22:33;;;;;;;2.78;0.90;;;;;;;;;;5068565;28;20128;-82
2021/05/28 07:25:00;;;;;;;1.33;0.90;;;;;;;;;;5067324;28;20045;-82
2021/05/28 07:27:27;;;;;;;2.88;0.80;;;;;;;;;;5069933;28;20037;-82
2021/05/28 07:29:54;;;;;;;2.38;1.00;;;;;;;;;;5066417;28;20452;-82
2021/05/28 07:32:21;;;;;;;2.25;0.90;;;;;;;;;;5067524;28;20037;-82
2021/05/28 07:34:48;;;;;;;1.13;1.10;;;;;;;;;;5062239;28;20045;-83
2021/05/28 07:37:15;;;;;;;1.95;1.10;;;;;;;;;;5063044;28;20041;-84
2021/05/28 07:39:41;;;;;;;3.30;0.90;;;;;;;;;;5051515;28;20132;-82
2021/05/28 07:42:08;;;;;;;4.90;1.00;;;;;;;;;;5070035;28;20044;-82
2021/05/28 07:44:35;;;;;;;0.98;0.98;;;;;;;;;;5069335;28;20508;-82
2021/05/28 07:47:02;;;;;;;1.35;0.90;;;;;;;;;;5056699;28;20383;-82
2021/05/28 07:49:29;;;;;;;1.23;0.90;;;;;;;;;;5082195;28;20048;-82
2021/05/28 07:51:55;;;;;;;2.35;0.82;;;;;;;;;;5049548;28;20525;-82
2021/05/28 07:54:22;;;;;;;4.85;1.20;;;;;;;;;;5061961;28;20049;-82
2021/05/28 07:56:49;;;;;;;2.50;0.95;;;;;;;;;;5067070;28;20481;-82
2021/05/28 07:59:16;;;;;;;1.30;1.15;;;;;;;;;;5054122;28;20049;-82
2021/05/28 08:01:44;;;;;;;1.15;0.80;;;;;;;;;;5063577;28;20041;-83
2021/05/28 08:04:11;;;;;;;1.10;0.95;;;;;;;;;;5068039;28;20044;-83
2021/05/28 08:06:38;;;;;;;2.40;0.70;;;;;;;;;;5067954;28;20720;-82
2021/05/28 08:09:06;;;;;;;1.67;0.90;;;;;;;;;;5068801;28;20038;-82
2021/05/28 08:11:33;;;;;;;3.42;0.70;;;;;;;;;;5052143;28;20048;-82
2021/05/28 08:13:59;;;;;;;2.25;0.80;;;;;;;;;;5066165;28;20091;-82
2021/05/28 08:16:26;;;;;;;3.33;0.95;;;;;;;;;;5067362;28;20048;-82
2021/05/28 08:18:53;;;;;;;0.80;0.80;;;;;;;;;;5067763;28;20045;-82
2021/05/28 08:21:20;;;;;;;1.10;1.00;;;;;;;;;;5068357;28;20386;-82
2021/05/28 08:23:46;;;;;;;4.47;0.90;;;;;;;;;;5053226;28;20045;-82
2021/05/28 08:26:13;;;;;;;0.73;0.73;;;;;;;;;;5065813;28;20089;-82
2021/05/28 08:28:40;;;;;;;0.90;0.70;;;;;;;;;;5066564;28;20497;-82
2021/05/28 08:31:08;;;;;;;1.40;0.77;;;;;;;;;;5067428;28;20049;-83
2021/05/28 08:33:35;;;;;;;2.60;0.70;;;;;;;;;;5069197;28;20394;-83
2021/05/28 08:36:03;;;;;;;4.22;1.85;;;;;;;;;;5067781;28;20120;-83
2021/05/28 08:38:30;;;;;;;2.80;0.70;;;;;;;;;;5061332;28;20072;-83
2021/05/28 08:40:56;;;;;;;0.88;0.70;;;;;;;;;;5062573;28;20429;-82
2021/05/28 08:43:23;;;;;;;2.47;0.70;;;;;;;;;;5070877;28;20041;-82
2021/05/28 08:45:51;;;;;;;2.05;0.70;;;;;;;;;;5070867;28;20090;-82
2021/05/28 08:48:20;;;;;;;0.70;0.63;;;;;;;;;;5066251;28;20037;-82
2021/05/28 08:50:48;;;;;;;0.88;0.60;;;;;;;;;;5080650;28;20213;-83
2021/05/28 08:53:15;;;;;;;0.95;0.73;;;;;;;;;;5062407;28;20504;-82
2021/05/28 08:55:43;;;;;;;0.70;0.70;;;;;;;;;;5103936;28;20044;-82
2021/05/28 08:58:14;;;;;;;1.92;1.33;;;;;;;;;;5069914;28;20044;-82
2021/05/28 09:00:42;;;;;;;1.63;0.70;;;;;;;;;;5070294;28;20036;-82
2021/05/28 09:03:23;;;;;;;2.00;0.70;;;;;;;;;;5071856;28;20056;-82
2021/05/28 09:05:56;;;;;;;2.60;0.60;;;;;;;;;;5063424;28;20127;-82
2021/05/28 09:08:24;;;;;;;1.02;0.65;;;;;;;;;;5071548;28;20036;-82
2021/05/28 09:10:51;;;;;;;0.70;0.70;;;;;;;;;;5068279;28;20032;-82
2021/05/28 09:13:21;;;;;;;1.50;0.60;;;;;;;;;;5069192;28;20052;-82
2021/05/28 09:16:03;;;;;;;0.75;0.60;;;;;;;;;;5058661;28;20078;-82
2021/05/28 09:18:49;;;;;;;0.60;0.60;;;;;;;;;;5068563;28;20420;-82
2021/05/28 09:21:23;;;;;;;0.60;0.60;;;;;;;;;;5067811;28;20409;-82
2021/05/28 09:23:51;;;;;;;1.20;0.60;;;;;;;;;;5070665;28;20116;-83
2021/05/28 09:26:18;;;;;;;0.63;0.60;;;;;;;;;;5068282;28;20041;-82
2021/05/28 09:28:46;;;;;;;4.57;0.50;;;;;;;;;;5052126;28;20093;-82
2021/05/28 09:31:14;;;;;;;0.50;0.50;;;;;;;;;;5070302;28;20521;-83
2021/05/28 09:33:48;;;;;;;1.35;0.50;;;;;;;;;;5068378;28;20089;-82
2021/05/28 09:36:22;;;;;;;0.60;0.50;;;;;;;;;;5093937;28;20041;-83
2021/05/28 09:38:56;;;;;;;2.33;0.50;;;;;;;;;;5067896;28;20055;-83
2021/05/28 09:41:38;;;;;;;0.50;0.50;;;;;;;;;;5095032;28;20044;-82
2021/05/28 09:44:25;;;;;;;1.17;0.60;;;;;;;;;;5081553;28;20048;-82
2021/05/28 09:47:01;;;;;;;1.38;0.50;;;;;;;;;;5065617;28;20040;-83
2021/05/28 09:49:30;;;;;;;0.50;0.50;;;;;;;;;;5069406;28;20029;-83
2021/05/28 09:52:06;;;;;;;0.50;0.50;;;;;;;;;;5070820;28;20029;-83
2021/05/28 09:54:33;;;;;;;0.82;0.50;;;;;;;;;;5068755;28;20056;-82
2021/05/28 09:57:01;;;;;;;0.57;0.50;;;;;;;;;;5052413;28;20079;-82
2021/05/28 09:59:49;;;;;;;1.65;0.45;;;;;;;;;;5063160;28;20041;-83
2021/05/28 10:02:27;;;;;;;0.85;0.40;;;;;;;;;;5060672;28;20036;-83
2021/05/28 10:04:55;;;;;;;0.50;0.50;;;;;;;;;;5102699;27;20103;-83
2021/05/28 10:07:25;;;;;;;1.20;0.50;;;;;;;;;;5067379;28;20466;-83
2021/05/28 10:09:52;;;;;;;0.85;0.68;;;;;;;;;;5061129;28;20435;-83
2021/05/28 10:12:20;;;;;;;1.30;0.40;;;;;;;;;;5075225;28;20053;-83
2021/05/28 10:14:49;;;;;;;0.47;0.47;;;;;;;;;;5068872;28;20475;-82
2021/05/28 10:17:16;;;;;;;0.73;0.50;;;;;;;;;;5053608;28;20044;-83
2021/05/28 10:19:43;;;;;;;1.20;0.50;;;;;;;;;;5068956;28;20058;-83
2021/05/28 10:22:09;;;;;;;0.40;0.40;;;;;;;;;;5070099;28;20557;-83
2021/05/28 10:24:36;;;;;;;0.52;0.50;;;;;;;;;;5065435;28;20124;-83
2021/05/28 10:27:03;;;;;;;1.13;0.60;;;;;;;;;;5065764;28;20094;-83
2021/05/28 10:29:30;;;;;;;0.40;0.40;;;;;;;;;;5068079;28;20029;-83
2021/05/28 10:32:01;;;;;;;0.40;0.40;;;;;;;;;;5065399;28;20035;-82
2021/05/28 10:34:29;;;;;;;0.50;0.50;;;;;;;;;;5059810;28;20401;-83
2021/05/28 10:36:58;;;;;;;1.92;0.50;;;;;;;;;;5081168;28;20436;-83
2021/05/28 10:39:25;;;;;;;1.25;0.50;;;;;;;;;;5067548;28;20044;-82
2021/05/28 10:41:55;;;;;;;1.70;0.50;;;;;;;;;;5066346;28;20025;-83
2021/05/28 10:44:25;;;;;;;1.45;0.50;;;;;;;;;;5071029;28;20110;-83
2021/05/28 10:46:52;;;;;;;3.72;0.50;;;;;;;;;;5067390;28;20468;-83
2021/05/28 10:49:19;;;;;;;0.82;0.40;;;;;;;;;;5069079;28;20044;-83
2021/05/28 10:51:45;;;;;;;1.88;0.40;;;;;;;;;;5065575;28;20048;-83
2021/05/28 10:54:16;;;;;;;0.40;0.40;;;;;;;;;;5065263;28;20494;-83
2021/05/28 10:56:44;;;;;;;0.65;0.43;;;;;;;;;;5066112;28;20040;-83
2021/05/28 10:59:12;;;;;;;1.75;0.40;;;;;;;;;;5066867;28;20048;-83
2021/05/28 11:01:42;;;;;;;0.75;0.35;;;;;;;;;;5061310;28;20053;-83
2021/05/28 11:04:10;;;;;;;1.55;0.40;;;;;;;;;;5066290;28;20050;-83
2021/05/28 11:07:06;;;;;;;0.40;0.40;;;;;;;;;;5056850;28;20078;-83
2021/05/28 11:09:50;;;;;;;1.58;0.38;;;;;;;;;;5063673;28;20046;-83
2021/05/28 11:12:16;;;;;;;0.80;0.40;;;;;;;;;;5076940;28;20140;-83
2021/05/28 11:15:14;;;;;;;0.43;0.43;;;;;;;;;;5055197;28;20042;-83
2021/05/28 11:17:51;;;;;;;2.15;0.40;;;;;;;;;;5044159;28;20536;-83
2021/05/28 11:20:27;;;;;;;0.40;0.40;;;;;;;;;;5026283;28;20041;-83
2021/05/28 11:22:55;;;;;;;0.52;0.47;;;;;;;;;;5012169;28;20056;-83
2021/05/28 11:25:23;;;;;;;0.57;0.40;;;;;;;;;;5029531;28;20060;-82
2021/05/28 11:27:55;;;;;;;1.30;0.40;;;;;;;;;;5013370;28;20129;-83
2021/05/28 11:30:23;;;;;;;1.65;0.30;;;;;;;;;;5013035;28;20050;-83
2021/05/28 11:32:51;;;;;;;1.30;0.30;;;;;;;;;;5045255;28;20718;-83
2021/05/28 11:35:17;;;;;;;0.30;0.30;;;;;;;;;;5028385;28;20138;-83
2021/05/28 11:37:44;;;;;;;0.55;0.30;;;;;;;;;;5030247;28;20044;-83
2021/05/28 11:40:15;;;;;;;0.68;0.40;;;;;;;;;;5023780;28;20060;-83
2021/05/28 11:42:42;;;;;;;1.10;0.40;;;;;;;;;;5029692;28;20041;-83
2021/05/28 11:45:12;;;;;;;0.50;0.40;;;;;;;;;;5002794;28;20048;-83
2021/05/28 11:47:39;;;;;;;1.10;0.70;;;;;;;;;;5037066;28;20148;-84
2021/05/28 11:50:07;;;;;;;3.50;0.43;;;;;;;;;;5025227;28;20069;-84
2021/05/28 11:52:38;;;;;;;0.55;0.30;;;;;;;;;;5040199;28;20041;-84
2021/05/28 11:55:10;;;;;;;0.30;0.30;;;;;;;;;;5052846;28;20536;-84
2021/05/28 11:57:37;;;;;;;1.70;0.30;;;;;;;;;;5057799;28;20379;-84
2021/05/28 12:00:07;;;;;;;0.77;0.30;;;;;;;;;;5067099;28;20048;-84
2021/05/28 12:02:47;;;;;;;1.52;0.70;;;;;;;;;;5068540;28;20060;-84
2021/05/28 12:05:15;;;;;;;1.25;0.40;;;;;;;;;;5067638;28;20043;-84
2021/05/28 12:07:42;;;;;;;0.40;0.40;;;;;;;;;;5089439;28;20127;-84
2021/05/28 12:10:11;;;;;;;0.63;0.30;;;;;;;;;;5054717;28;20079;-84
2021/05/28 12:12:51;;;;;;;0.52;0.40;;;;;;;;;;5063670;28;20039;-84
2021/05/28 12:15:18;;;;;;;0.30;0.30;;;;;;;;;;5085536;28;20059;-84
2021/05/28 12:17:47;;;;;;;0.30;0.30;;;;;;;;;;5072105;28;20071;-84
2021/05/28 12:20:15;;;;;;;0.40;0.40;;;;;;;;;;5072607;28;20735;-83
2021/05/28 12:23:00;;;;;;;2.22;0.40;;;;;;;;;;5069958;28;20523;-84
2021/05/28 12:25:32;;;;;;;2.05;0.30;;;;;;;;;;5064807;28;20482;-83
2021/05/28 12:28:15;;;;;;;0.40;0.30;;;;;;;;;;5068114;28;20078;-84
2021/05/28 12:30:43;;;;;;;0.30;0.30;;;;;;;;;;5071627;28;20482;-84
2021/05/28 12:33:10;;;;;;;0.45;0.38;;;;;;;;;;5064479;28;20682;-84
2021/05/28 12:35:37;;;;;;;1.15;0.30;;;;;;;;;;5061529;28;20430;-84
2021/05/28 12:38:12;;;;;;;0.32;0.30;;;;;;;;;;5061956;28;20094;-84
2021/05/28 12:40:43;;;;;;;0.30;0.30;;;;;;;;;;5071433;28;20041;-84
2021/05/28 12:43:11;;;;;;;0.82;0.30;;;;;;;;;;5072783;28;20044;-84
2021/05/28 12:45:42;;;;;;;1.67;0.30;;;;;;;;;;5068809;28;20089;-84
2021/05/28 12:48:12;;;;;;;0.68;0.30;;;;;;;;;;5069247;28;20428;-77
2021/05/28 12:50:40;;;;;;;0.30;0.30;;;;;;;;;;5066108;28;20028;-77
2021/05/28 12:53:09;;;;;;;0.52;0.30;;;;;;;;;;5069185;28;20048;-77
2021/05/28 12:55:37;;;;;;;1.33;0.30;;;;;;;;;;5070509;28;20044;-77
2021/05/28 12:58:18;;;;;;;0.30;0.20;;;;;;;;;;5060564;28;20433;-77
2021/05/28 13:00:52;;;;;;;1.85;0.30;;;;;;;;;;5060844;28;20045;-77
2021/05/28 13:03:34;;;;;;;0.65;0.30;;;;;;;;;;5087709;28;20083;-77
2021/05/28 13:06:20;;;;;;;0.40;0.32;;;;;;;;;;5070217;28;20040;-77
2021/05/28 13:08:51;;;;;;;1.15;0.30;;;;;;;;;;5068859;28;20048;-77
2021/05/28 13:11:18;;;;;;;0.40;0.30;;;;;;;;;;5070498;28;20444;-77
2021/05/28 13:13:49;;;;;;;0.43;0.30;;;;;;;;;;5062034;28;20043;-77
2021/05/28 13:16:23;;;;;;;0.50;0.30;;;;;;;;;;5060914;28;20056;-77
2021/05/28 13:18:50;;;;;;;0.30;0.30;;;;;;;;;;5052342;28;20053;-77
2021/05/28 13:21:28;;;;;;;0.43;0.30;;;;;;;;;;5066145;28;20413;-77
2021/05/28 13:23:55;;;;;;;1.48;0.20;;;;;;;;;;5065533;28;20036;-77
2021/05/28 13:26:23;;;;;;;0.38;0.30;;;;;;;;;;5060393;28;20607;-77
2021/05/28 13:28:50;;;;;;;1.05;0.40;;;;;;;;;;5063370;28;20036;-77
2021/05/28 13:31:18;;;;;;;0.30;0.30;;;;;;;;;;5069252;28;20083;-77
2021/05/28 13:33:45;;;;;;;0.30;0.30;;;;;;;;;;5068851;28;20040;-77
2021/05/28 13:36:13;;;;;;;1.60;0.30;;;;;;;;;;5069585;28;20048;-77
2021/05/28 13:38:58;;;;;;;0.30;0.30;;;;;;;;;;5070826;28;20089;-77
2021/05/28 13:41:35;;;;;;;0.30;0.30;;;;;;;;;;5068978;28;20041;-77
2021/05/28 13:44:02;;;;;;;1.75;0.30;;;;;;;;;;5071912;28;20037;-77
2021/05/28 13:46:32;;;;;;;0.30;0.30;;;;;;;;;;5103241;28;20051;-77
2021/05/28 13:49:00;;;;;;;0.30;0.30;;;;;;;;;;5068801;28;20029;-77
2021/05/28 13:51:27;;;;;;;1.17;0.30;;;;;;;;;;5070508;28;20059;-77
2021/05/28 13:53:54;;;;;;;0.35;0.35;;;;;;;;;;5070236;28;20045;-77
2021/05/28 13:56:20;;;;;;;7.78;0.30;;;;;;;;;;5070441;28;20094;-77
2021/05/28 13:58:47;;;;;;;0.20;0.20;;;;;;;;;;5069817;28;20044;-77
2021/05/28 14:01:14;;;;;;;0.20;0.20;;;;;;;;;;5068799;28;20482;-77
2021/05/28 14:03:41;;;;;;;0.28;0.28;;;;;;;;;;5068265;28;20044;-77
2021/05/28 14:06:07;;;;;;;0.30;0.30;;;;;;;;;;5052258;28;20520;-77
2021/05/28 14:08:34;;;;;;;0.30;0.30;;;;;;;;;;5043011;28;20132;-77
2021/05/28 14:11:01;;;;;;;0.63;0.30;;;;;;;;;;5070217;28;20029;-77
2021/05/28 14:13:30;;;;;;;0.30;0.30;;;;;;;;;;5068349;28;20040;-77
2021/05/28 14:15:57;;;;;;;0.38;0.38;;;;;;;;;;5084260;28;20040;-77
2021/05/28 14:18:24;;;;;;;1.20;0.30;;;;;;;;;;5048253;28;20044;-77
2021/05/28 14:20:51;;;;;;;0.50;0.40;;;;;;;;;;5063468;28;20098;-77
2021/05/28 14:23:19;;;;;;;0.32;0.30;;;;;;;;;;5069051;28;20441;-77
2021/05/28 14:25:46;;;;;;;0.30;0.30;;;;;;;;;;5065692;28;20025;-77
2021/05/28 14:28:13;;;;;;;0.30;0.30;;;;;;;;;;5068998;28;20040;-77
2021/05/28 14:30:41;;;;;;;0.75;0.75;;;;;;;;;;5068708;28;20119;-77
2021/05/28 14:33:08;;;;;;;0.40;0.40;;;;;;;;;;5069577;28;20437;-77
2021/05/28 14:35:35;;;;;;;0.40;0.40;;;;;;;;;;5081684;28;20053;-77
2021/05/28 14:38:02;;;;;;;0.40;0.40;;;;;;;;;;5067955;28;20036;-77
2021/05/28 14:40:29;;;;;;;0.65;0.40;;;;;;;;;;5068847;28;20477;-77
2021/05/28 14:42:56;;;;;;;1.10;0.50;;;;;;;;;;5069327;28;20466;-77
2021/05/28 14:45:26;;;;;;;0.55;0.40;;;;;;;;;;5067436;28;20040;-77
2021/05/28 14:47:53;;;;;;;3.80;0.50;;;;;;;;;;5069759;28;20064;-77
2021/05/28 14:50:20;;;;;;;0.40;0.40;;;;;;;;;;5068029;28;20039;-77
2021/05/28 14:52:47;;;;;;;0.40;0.40;;;;;;;;;;5061967;28;20083;-77